Terminal Aerodrome Forecast
Issued by NWS Upton, NY

Home | Current Version | Previous Version | Text Only | Print | Product List | Glossary On
Versions: 1 2 3 4 5 6 7 8 9 10 11 12 13 14 15 16 17 18 19 20 21 22 23 24 25
000
FTUS41 KOKX 312000 AAA
TAFEWR
TAF AMD
KEWR 312038Z 3121/0124 02010KT P6SM FEW030 BKN050 OVC150
      TEMPO 0101/0103 -RA
     FM010300 02010KT P6SM -RA OVC025
     FM010700 02015G22KT 5SM -RA BR OVC015
     FM011500 02018G28KT 3SM RA BR OVC012
     FM012000 35018G28KT 5SM -RA BR OVC015=

USA.gov is the U.S. government's official web portal to all federal, state and local government web resources and services.